createdAt,value
2018-08-20T00:02:16.826Z,6.87
2018-08-20T00:05:22.461Z,6.13
2018-08-20T00:08:27.410Z,6.03
2018-08-20T00:11:32.353Z,9.50
2018-08-20T00:14:37.434Z,5.87
2018-08-20T00:17:42.352Z,8.23
2018-08-20T00:20:47.484Z,6.83
2018-08-20T00:23:52.399Z,7.07
2018-08-20T00:26:59.236Z,6.83
2018-08-20T00:30:05.588Z,6.60
2018-08-20T00:33:10.741Z,7.33
2018-08-20T00:36:15.648Z,5.80
2018-08-20T00:39:20.580Z,8.00
2018-08-20T00:42:25.492Z,6.60
2018-08-20T00:45:30.422Z,6.27
2018-08-20T00:48:35.377Z,6.60
2018-08-20T00:51:40.321Z,7.20
2018-08-20T00:54:45.293Z,6.33
2018-08-20T00:57:50.212Z,8.77
2018-08-20T01:00:55.099Z,7.53
2018-08-20T01:04:00.703Z,6.97
2018-08-20T01:07:05.647Z,6.47
2018-08-20T01:10:10.565Z,7.27
2018-08-20T01:13:15.460Z,6.93
2018-08-20T01:16:20.365Z,6.97
2018-08-20T01:19:25.264Z,6.60
2018-08-20T01:22:30.156Z,6.90
2018-08-20T01:25:35.039Z,8.07
2018-08-20T01:28:39.969Z,7.03
2018-08-20T01:31:44.865Z,6.40
2018-08-20T01:34:49.760Z,6.23
2018-08-20T01:37:54.792Z,7.07
2018-08-20T01:40:59.672Z,6.60
2018-08-20T01:44:04.577Z,7.93
2018-08-20T01:47:09.465Z,7.67
2018-08-20T01:50:14.384Z,7.73
2018-08-20T01:53:19.288Z,7.20
2018-08-20T01:56:24.181Z,6.40
2018-08-20T01:59:29.228Z,8.07
2018-08-20T02:02:34.166Z,7.23
2018-08-20T02:05:39.081Z,7.40
2018-08-20T02:08:44.013Z,7.70
2018-08-20T02:11:48.901Z,7.00
2018-08-20T02:14:53.785Z,7.23
2018-08-20T02:17:58.720Z,7.17
2018-08-20T02:21:03.651Z,7.87
2018-08-20T02:24:08.570Z,7.33
2018-08-20T02:27:13.457Z,9.20
2018-08-20T02:30:18.348Z,7.70
2018-08-20T02:33:23.277Z,9.13
2018-08-20T02:36:28.165Z,7.07
2018-08-20T02:39:33.045Z,7.07
2018-08-20T02:42:37.989Z,6.40
2018-08-20T02:45:42.891Z,7.83
2018-08-20T02:48:47.792Z,7.63
2018-08-20T02:51:52.713Z,8.63
2018-08-20T02:54:57.636Z,7.93
2018-08-20T02:58:02.560Z,7.27
2018-08-20T03:01:07.493Z,9.60
2018-08-20T03:04:12.449Z,7.90
2018-08-20T03:07:17.361Z,8.13
2018-08-20T03:10:22.288Z,7.47
2018-08-20T03:13:27.212Z,9.53
2018-08-20T03:16:32.456Z,8.97
2018-08-20T03:19:37.328Z,7.83
2018-08-20T03:22:42.283Z,8.23
2018-08-20T03:25:47.236Z,8.23
2018-08-20T03:28:52.188Z,9.37
2018-08-20T03:31:57.116Z,8.13
2018-08-20T03:35:02.049Z,8.13
2018-08-20T03:38:07.019Z,8.90
2018-08-20T03:41:11.984Z,7.97
2018-08-20T03:44:16.920Z,8.13
2018-08-20T03:47:21.872Z,7.83
2018-08-20T03:50:26.800Z,7.70
2018-08-20T03:53:31.784Z,8.80
2018-08-20T03:56:36.745Z,9.27
2018-08-20T03:59:41.654Z,8.90
2018-08-20T04:02:46.541Z,10.10
2018-08-20T04:05:51.457Z,7.57
2018-08-20T04:08:56.350Z,8.30
2018-08-20T04:12:02.155Z,8.47
2018-08-20T04:15:07.054Z,7.30
2018-08-20T04:18:11.957Z,8.63
2018-08-20T04:21:16.849Z,8.20
2018-08-20T04:24:21.779Z,7.83
2018-08-20T04:27:26.669Z,8.27
2018-08-20T04:30:31.620Z,7.50
2018-08-20T04:33:36.478Z,7.93
2018-08-20T04:36:41.528Z,8.43
2018-08-20T04:40:03.775Z,9.20
2018-08-20T04:43:09.118Z,8.20
2018-08-20T04:46:14.057Z,8.50
2018-08-20T04:49:18.954Z,7.93
2018-08-20T04:52:23.842Z,11.03
2018-08-20T04:55:28.733Z,7.87
2018-08-20T04:58:33.667Z,8.03
2018-08-20T05:01:38.557Z,8.87
2018-08-20T05:04:43.446Z,7.87
2018-08-20T05:07:48.342Z,8.57
2018-08-20T05:10:53.240Z,7.93
2018-08-20T05:13:58.127Z,9.03
2018-08-20T05:17:03.081Z,11.13
2018-08-20T05:20:08.661Z,9.87
2018-08-20T05:23:13.559Z,7.90
2018-08-20T05:26:19.153Z,12.33
2018-08-20T05:29:24.042Z,9.10
2018-08-20T05:32:29.056Z,9.63
2018-08-20T05:35:34.022Z,7.27
2018-08-20T05:38:38.937Z,10.70
2018-08-20T05:41:43.885Z,8.93
2018-08-20T05:44:49.018Z,9.73
2018-08-20T05:47:53.832Z,9.47
2018-08-20T05:50:58.836Z,13.40
2018-08-20T05:54:03.989Z,17.57
2018-08-20T05:57:09.064Z,16.20
2018-08-20T06:00:15.957Z,15.10
2018-08-20T06:03:20.952Z,17.83
2018-08-20T06:06:25.912Z,16.13
2018-08-20T06:09:30.895Z,16.77
2018-08-20T06:12:36.372Z,27.60
2018-08-20T06:15:41.384Z,20.43
2018-08-20T06:18:46.368Z,19.10
2018-08-20T06:21:51.374Z,23.57
2018-08-20T06:24:56.371Z,20.73
2018-08-20T06:28:01.349Z,22.93
2018-08-20T06:31:06.349Z,45.27
2018-08-20T06:34:11.377Z,35.93
2018-08-20T06:37:16.337Z,30.87
2018-08-20T06:40:21.339Z,25.33
2018-08-20T06:43:26.337Z,23.73
2018-08-20T06:46:31.381Z,21.10
2018-08-20T06:49:36.410Z,17.77
2018-08-20T06:52:42.923Z,19.80
2018-08-20T06:55:47.921Z,17.67
2018-08-20T06:58:53.193Z,23.13
2018-08-20T07:01:58.230Z,13.20
2018-08-20T07:05:16.781Z,15.90
2018-08-20T07:08:21.874Z,11.53
2018-08-20T07:11:27.051Z,10.47
2018-08-20T07:14:32.126Z,10.77
2018-08-20T07:17:37.472Z,9.07
2018-08-20T07:20:42.461Z,9.13
2018-08-20T07:23:47.466Z,7.67
2018-08-20T07:26:52.456Z,10.77
2018-08-20T07:29:57.409Z,10.73
2018-08-20T07:33:02.528Z,7.20
2018-08-20T07:36:07.441Z,8.53
2018-08-20T07:39:12.392Z,8.00
2018-08-20T07:42:18.215Z,9.53
2018-08-20T07:45:23.136Z,8.53
2018-08-20T07:48:28.117Z,8.70
2018-08-20T07:51:33.096Z,8.00
2018-08-20T07:54:38.876Z,8.27
2018-08-20T07:57:43.852Z,8.20
2018-08-20T08:00:48.817Z,8.90
2018-08-20T08:03:53.777Z,7.77
2018-08-20T08:06:58.766Z,9.60
2018-08-20T08:10:05.601Z,8.23
2018-08-20T08:13:10.576Z,8.57
2018-08-20T08:16:15.534Z,10.00
2018-08-20T08:19:20.512Z,8.33
2018-08-20T08:22:25.473Z,12.23
2018-08-20T08:25:30.465Z,10.90
2018-08-20T08:28:35.493Z,11.03
2018-08-20T08:31:40.522Z,9.07
2018-08-20T08:34:45.521Z,8.17
2018-08-20T08:37:50.484Z,8.70
2018-08-20T08:40:55.538Z,9.20
2018-08-20T08:44:00.501Z,9.43
2018-08-20T08:47:05.684Z,7.33
2018-08-20T08:50:11.005Z,8.40
2018-08-20T08:53:16.071Z,7.50
2018-08-20T08:56:21.058Z,7.40
2018-08-20T08:59:26.248Z,7.77
2018-08-20T09:02:31.262Z,7.77
2018-08-20T09:05:36.196Z,7.80
2018-08-20T09:08:41.161Z,7.43
2018-08-20T09:11:46.100Z,7.80
2018-08-20T09:14:51.024Z,6.63
2018-08-20T09:17:56.049Z,6.03
2018-08-20T09:21:00.974Z,7.50
2018-08-20T09:24:05.977Z,8.13
2018-08-20T09:27:11.017Z,7.00
2018-08-20T09:30:18.900Z,6.20
2018-08-20T09:33:23.797Z,7.93
2018-08-20T09:36:28.709Z,8.57
2018-08-20T09:39:33.761Z,7.77
2018-08-20T09:42:39.497Z,6.87
2018-08-20T09:45:44.429Z,6.20
2018-08-20T09:48:49.468Z,5.93
2018-08-20T09:51:54.368Z,5.63
2018-08-20T09:54:59.623Z,6.43
2018-08-20T09:58:04.609Z,4.93
2018-08-20T10:01:09.585Z,5.43
2018-08-20T10:04:14.774Z,6.27
2018-08-20T10:07:19.746Z,12.40
2018-08-20T10:10:24.660Z,8.73
2018-08-20T10:13:29.581Z,37.30
2018-08-20T10:16:49.753Z,8.43
2018-08-20T10:19:54.708Z,6.73
2018-08-20T10:22:59.686Z,4.83
2018-08-20T10:26:05.258Z,2.60
2018-08-20T10:29:10.254Z,4.50
2018-08-20T10:32:15.161Z,2.93
2018-08-20T10:35:20.137Z,4.43
2018-08-20T10:38:25.178Z,6.33
2018-08-20T10:41:30.091Z,3.40
2018-08-20T10:44:40.653Z,4.40
2018-08-20T10:47:47.012Z,3.60
2018-08-20T10:50:51.940Z,3.67
2018-08-20T10:53:56.892Z,3.83
2018-08-20T10:57:02.137Z,3.73
2018-08-20T11:00:07.553Z,3.77
2018-08-20T11:03:12.554Z,3.40
2018-08-20T11:06:17.536Z,13.77
2018-08-20T11:09:22.522Z,5.27
2018-08-20T11:12:27.669Z,6.63
2018-08-20T11:15:32.665Z,8.00
2018-08-20T11:18:37.632Z,4.63
2018-08-20T11:21:42.633Z,5.50
2018-08-20T11:24:47.657Z,3.50
2018-08-20T11:27:52.633Z,4.73
2018-08-20T11:30:57.598Z,3.57
2018-08-20T11:34:02.638Z,3.33
2018-08-20T11:37:07.645Z,4.03
2018-08-20T11:40:12.668Z,3.53
2018-08-20T11:43:17.696Z,6.00
2018-08-20T11:46:22.669Z,3.63
2018-08-20T11:49:27.644Z,3.30
2018-08-20T11:52:32.585Z,4.20
2018-08-20T11:55:51.376Z,4.30
2018-08-20T11:58:57.137Z,3.23
2018-08-20T12:02:02.247Z,3.40
2018-08-20T12:05:08.099Z,4.30
2018-08-20T12:08:13.065Z,3.80
2018-08-20T12:11:18.024Z,3.07
2018-08-20T12:14:23.224Z,2.50
2018-08-20T12:17:28.201Z,3.37
2018-08-20T12:20:33.149Z,4.63
2018-08-20T12:23:38.197Z,2.90
2018-08-20T12:26:43.168Z,2.07
2018-08-20T12:29:48.156Z,2.10
2018-08-20T12:32:53.128Z,2.73
2018-08-20T12:35:58.117Z,2.30
2018-08-20T12:39:04.190Z,2.77
2018-08-20T12:42:09.162Z,2.60
2018-08-20T12:45:14.130Z,2.13
2018-08-20T12:48:19.073Z,2.13
2018-08-20T12:52:12.314Z,3.57
2018-08-20T12:55:17.314Z,4.50
2018-08-20T12:58:22.384Z,4.43
2018-08-20T13:01:27.365Z,2.73
2018-08-20T13:04:32.366Z,2.83
2018-08-20T13:07:37.355Z,3.27
2018-08-20T13:10:42.316Z,3.67
2018-08-20T13:13:47.278Z,3.20
2018-08-20T13:16:52.243Z,2.43
2018-08-20T13:19:57.208Z,2.43
2018-08-20T13:23:02.165Z,2.83
2018-08-20T13:26:07.165Z,2.87
2018-08-20T13:29:12.133Z,1.60
2018-08-20T13:32:17.151Z,2.30
2018-08-20T13:35:22.115Z,2.53
2018-08-20T13:38:27.109Z,2.17
2018-08-20T13:41:32.056Z,1.97
2018-08-20T13:44:37.381Z,1.60
2018-08-20T13:47:42.325Z,1.60
2018-08-20T13:50:47.316Z,2.33
2018-08-20T13:53:52.272Z,2.47
2018-08-20T13:56:57.250Z,2.07
2018-08-20T14:00:02.261Z,2.17
2018-08-20T14:03:07.267Z,4.47
2018-08-20T14:06:12.222Z,2.07
2018-08-20T14:09:17.150Z,1.80
2018-08-20T14:12:22.132Z,1.70
2018-08-20T14:15:27.094Z,2.50
2018-08-20T14:18:32.058Z,2.37
2018-08-20T14:22:26.336Z,2.77
2018-08-20T14:25:31.553Z,3.97
2018-08-20T14:28:36.517Z,2.77
2018-08-20T14:31:41.478Z,4.67
2018-08-20T14:34:46.470Z,2.73
2018-08-20T14:37:51.465Z,2.83
2018-08-20T14:40:56.424Z,4.70
2018-08-20T14:44:01.365Z,4.50
2018-08-20T14:47:06.346Z,2.60
2018-08-20T14:50:13.388Z,2.83
2018-08-20T14:53:18.361Z,3.20
2018-08-20T14:56:23.317Z,3.80
2018-08-20T14:59:28.310Z,3.57
2018-08-20T15:02:33.318Z,3.00
2018-08-20T15:05:38.340Z,3.77
2018-08-20T15:08:43.293Z,4.10
2018-08-20T15:11:48.298Z,2.57
2018-08-20T15:14:53.268Z,3.23
2018-08-20T15:17:58.240Z,3.60
2018-08-20T15:21:03.656Z,3.70
2018-08-20T15:24:08.604Z,2.20
2018-08-20T15:27:13.602Z,2.53
2018-08-20T15:30:18.568Z,3.07
2018-08-20T15:33:23.581Z,3.00
2018-08-20T15:36:28.553Z,2.23
2018-08-20T15:39:33.707Z,2.73
2018-08-20T15:42:38.625Z,2.57
2018-08-20T15:45:43.621Z,3.13
2018-08-20T15:48:49.078Z,2.70
2018-08-20T15:51:54.048Z,2.80
2018-08-20T15:54:59.021Z,3.20
2018-08-20T15:58:04.348Z,3.93
2018-08-20T16:01:09.442Z,1.80
2018-08-20T16:04:14.746Z,2.50
2018-08-20T16:07:19.901Z,2.30
2018-08-20T16:10:24.841Z,2.03
2018-08-20T16:13:29.835Z,2.20
2018-08-20T16:16:34.816Z,1.50
2018-08-20T16:19:40.289Z,2.10
2018-08-20T16:22:45.269Z,2.43
2018-08-20T16:25:50.289Z,3.67
2018-08-20T16:28:55.290Z,4.10
2018-08-20T16:32:00.369Z,3.57
2018-08-20T16:35:07.396Z,2.33
2018-08-20T16:38:12.425Z,3.13
2018-08-20T16:41:17.379Z,3.20
2018-08-20T16:44:22.546Z,2.70
2018-08-20T16:47:27.674Z,2.43
2018-08-20T16:50:32.696Z,2.13
2018-08-20T16:53:37.857Z,3.93
2018-08-20T16:56:43.983Z,5.63
2018-08-20T16:59:48.981Z,2.83
2018-08-20T17:02:53.953Z,2.93
2018-08-20T17:05:58.905Z,4.00
2018-08-20T17:09:04.577Z,2.60
2018-08-20T17:12:09.616Z,2.30
2018-08-20T17:15:16.210Z,2.53
2018-08-20T17:18:21.249Z,2.73
2018-08-20T17:21:26.216Z,5.80
2018-08-20T17:24:36.904Z,4.13
2018-08-20T17:27:43.988Z,2.73
2018-08-20T17:30:52.494Z,2.20
2018-08-20T17:33:57.485Z,2.40
2018-08-20T17:37:02.841Z,2.73
2018-08-20T17:40:09.231Z,3.23
2018-08-20T17:43:15.489Z,2.27
2018-08-20T17:46:20.453Z,4.00
2018-08-20T17:49:28.847Z,5.17
2018-08-20T17:52:39.241Z,6.30
2018-08-20T17:55:44.226Z,4.73
2018-08-20T17:58:51.380Z,2.50
2018-08-20T18:01:56.337Z,2.23
2018-08-20T18:05:01.303Z,3.33
2018-08-20T18:08:06.300Z,2.90
2018-08-20T18:11:11.320Z,3.90
2018-08-20T18:14:17.239Z,3.70
2018-08-20T18:17:22.206Z,3.03
2018-08-20T18:20:28.789Z,2.87
2018-08-20T18:23:34.645Z,3.13
2018-08-20T18:26:45.188Z,2.40
2018-08-20T18:29:50.177Z,2.57
2018-08-20T18:32:55.146Z,3.13
2018-08-20T18:36:04.757Z,2.80
2018-08-20T18:39:11.768Z,4.77
2018-08-20T18:42:16.956Z,2.83
2018-08-20T18:45:21.936Z,4.33
2018-08-20T18:48:33.265Z,3.47
2018-08-20T18:51:38.244Z,2.70
2018-08-20T18:54:46.888Z,3.07
2018-08-20T18:57:51.854Z,3.63
2018-08-20T19:00:56.829Z,2.63
2018-08-20T19:04:01.769Z,3.03
2018-08-20T19:07:08.166Z,5.60
2018-08-20T19:10:19.315Z,3.10
2018-08-20T19:13:24.241Z,3.80
2018-08-20T19:16:30.683Z,4.53
2018-08-20T19:19:40.320Z,3.50
2018-08-20T19:22:45.243Z,3.10
2018-08-20T19:25:50.182Z,3.20
2018-08-20T19:28:55.134Z,4.27
2018-08-20T19:32:00.069Z,3.20
2018-08-20T19:35:04.989Z,3.23
2018-08-20T19:38:09.908Z,3.23
2018-08-20T19:41:15.049Z,3.37
2018-08-20T19:44:19.949Z,3.47
2018-08-20T19:47:24.861Z,3.20
2018-08-20T19:50:29.796Z,4.03
2018-08-20T19:53:34.733Z,3.30
2018-08-20T19:56:39.648Z,3.60
2018-08-20T19:59:44.596Z,5.23
2018-08-20T20:02:49.565Z,3.43
2018-08-20T20:05:54.563Z,3.70
2018-08-20T20:09:06.693Z,3.50
2018-08-20T20:12:11.667Z,4.20
2018-08-20T20:15:16.619Z,7.33
2018-08-20T20:18:21.553Z,4.30
2018-08-20T20:21:26.521Z,3.80
2018-08-20T20:24:31.705Z,4.60
2018-08-20T20:27:36.678Z,4.80
2018-08-20T20:30:41.644Z,7.03
2018-08-20T20:33:46.605Z,3.30
2018-08-20T20:36:51.561Z,4.17
2018-08-20T20:39:59.563Z,4.77
2018-08-20T20:43:04.538Z,3.80
2018-08-20T20:46:09.861Z,3.43
2018-08-20T20:49:14.833Z,3.83
2018-08-20T20:52:19.834Z,4.20
2018-08-20T20:55:24.788Z,3.60
2018-08-20T20:58:32.777Z,3.50
2018-08-20T21:01:37.819Z,3.70
2018-08-20T21:04:42.622Z,4.10
2018-08-20T21:07:48.562Z,5.63
2018-08-20T21:10:53.493Z,5.30
2018-08-20T21:13:58.723Z,6.13
2018-08-20T21:17:03.656Z,3.80
2018-08-20T21:20:08.600Z,4.40
2018-08-20T21:23:13.524Z,4.43
2018-08-20T21:26:18.456Z,6.00
2018-08-20T21:29:24.844Z,5.27
2018-08-20T21:32:30.018Z,4.10
2018-08-20T21:35:34.924Z,4.03
2018-08-20T21:38:43.892Z,5.47
2018-08-20T21:41:49.124Z,3.87
2018-08-20T21:44:54.069Z,4.33
2018-08-20T21:47:59.045Z,4.70
2018-08-20T21:52:12.557Z,4.47
2018-08-20T21:55:17.454Z,4.30
2018-08-20T22:02:32.007Z,7.00
2018-08-20T22:05:36.941Z,6.97
2018-08-20T22:08:41.917Z,4.03
2018-08-20T22:11:46.899Z,4.33
2018-08-20T22:14:51.868Z,4.47
2018-08-20T22:17:57.137Z,5.60
2018-08-20T22:21:02.401Z,4.17
2018-08-20T22:24:07.387Z,4.20
2018-08-20T22:27:12.345Z,4.23
2018-08-20T22:30:17.348Z,4.07
2018-08-20T22:33:22.473Z,6.27
2018-08-20T22:36:28.749Z,5.70
2018-08-20T22:39:33.743Z,4.37
2018-08-20T22:42:46.081Z,4.53
2018-08-20T22:45:51.040Z,4.27
2018-08-20T22:48:58.133Z,4.53
2018-08-20T22:52:03.700Z,4.63
2018-08-20T22:55:08.916Z,4.70
2018-08-20T22:58:13.889Z,6.40
2018-08-20T23:01:19.076Z,4.73
2018-08-20T23:04:24.558Z,6.17
2018-08-20T23:07:29.797Z,4.77
2018-08-20T23:10:37.693Z,4.27
2018-08-20T23:13:42.656Z,4.40
2018-08-20T23:16:48.564Z,4.63
2018-08-20T23:19:53.749Z,4.60
2018-08-20T23:22:58.978Z,4.50
2018-08-20T23:26:07.677Z,4.70
2018-08-20T23:29:12.670Z,5.50
2018-08-20T23:32:17.593Z,5.90
2018-08-20T23:35:22.917Z,4.73
2018-08-20T23:38:28.748Z,4.87
2018-08-20T23:41:33.693Z,5.70
2018-08-20T23:44:38.653Z,5.23
2018-08-20T23:47:43.589Z,4.40
2018-08-20T23:50:58.680Z,5.23
2018-08-20T23:54:03.776Z,4.10
2018-08-20T23:57:08.737Z,4.83
